Weather reports worldwide

Advertisment
Tarvisio, Italy (16040): temperature & dewpoint: 09.12.2019 18:00:00 - 15.12.2019 18:00:00 (CET)Tarvisio, Italy (16040): wind speed: 09.12.2019 18:00:00 - 15.12.2019 18:00:00 (CET)Tarvisio, Italy (16040): wind direction: 09.12.2019 18:00:00 - 15.12.2019 18:00:00 (CET)Tarvisio, Italy (16040): visibility: 09.12.2019 18:00:00 - 15.12.2019 18:00:00 (CET)
Date & Time tt [°C] td [°C] ff [km/h] ff [kn] dd vv [km]
15.12.2019 18:00:00 2,0 1,0 9 5 WNW 10
15.12.2019 17:00:00 3,0 1,0 9 5 WNW 10
15.12.2019 16:00:00 3,0 1,2 8 4 WNW 15
15.12.2019 15:00:00 3,0 0,0 5 3 W 10
15.12.2019 14:00:00 3,0 0,0 0 0 N 10
15.12.2019 13:00:00 2,0 -0,3 4 2 SW 15
15.12.2019 12:00:00 0,0 -2,0 2 1 S 10
15.12.2019 11:00:00 -2,0 -3,0 0 0 N 10
15.12.2019 10:00:00 -2,8 -4,4 0 0 N 15
15.12.2019 09:00:00 -3,0 -5,0 0 0 N 10
15.12.2019 08:00:00 -3,0 -5,0 0 0 N 10
15.12.2019 07:00:00 -2,4 -4,4 0 0 N 15
15.12.2019 06:00:00 - - - - - -
15.12.2019 05:00:00 - - - - - -
15.12.2019 04:00:00 - - - - - -
15.12.2019 03:00:00 - - - - - -
15.12.2019 02:00:00 - - - - - -
15.12.2019 01:00:00 - - - - - -
15.12.2019 00:00:00 - - - - - -
14.12.2019 23:00:00 - - - - - -
14.12.2019 22:00:00 - - - - - -
14.12.2019 21:00:00 - - - - - -
14.12.2019 20:00:00 - - - - - -
14.12.2019 19:00:00 -2,0 -3,6 0 0 N 15
14.12.2019 18:00:00 -1,0 -3,0 0 0 N 10
14.12.2019 17:00:00 -1,0 -3,0 0 0 N 10
14.12.2019 16:00:00 0,0 -1,9 2 1 WSW 15
14.12.2019 15:00:00 0,0 -2,0 2 1 W 10
14.12.2019 14:00:00 1,0 -1,0 4 2 SW 10
14.12.2019 13:00:00 0,8 -1,6 2 1 SW 15
14.12.2019 12:00:00 -1,0 -3,0 0 0 N 10
14.12.2019 11:00:00 -1,0 -3,0 0 0 N 10
14.12.2019 10:00:00 -2,4 -3,8 0 0 N 15
14.12.2019 09:00:00 -3,0 -5,0 0 0 N 10
14.12.2019 08:00:00 -2,0 -4,0 0 0 N 10
14.12.2019 07:00:00 -2,2 -3,6 0 0 N 15
14.12.2019 06:00:00 - - - - - -
14.12.2019 05:00:00 - - - - - -
14.12.2019 04:00:00 - - - - - -
14.12.2019 03:00:00 - - - - - -
14.12.2019 02:00:00 - - - - - -
14.12.2019 01:00:00 - - - - - -
14.12.2019 00:00:00 - - - - - -
13.12.2019 23:00:00 - - - - - -
13.12.2019 22:00:00 - - - - - -
13.12.2019 21:00:00 - - - - - -
13.12.2019 20:00:00 - - - - - -
13.12.2019 19:00:00 -1,4 -2,4 0 0 N 0,4
13.12.2019 18:00:00 -1,0 -2,0 0 0 N 0,4
13.12.2019 17:00:00 -1,0 -2,0 0 0 N 0,5
13.12.2019 16:00:00 -1,0 -1,8 0 0 N 0,5
13.12.2019 15:00:00 -1,0 -2,0 0 0 N 1,5
13.12.2019 14:00:00 -1,0 -2,0 2 1 E 2,0
13.12.2019 13:00:00 -0,2 -2,1 9 5 WNW 4,0
13.12.2019 12:00:00 0,0 -2,0 9 5 WNW 8
13.12.2019 11:00:00 0,0 -3,0 8 4 NW 6
13.12.2019 10:00:00 -1,0 -2,9 5 3 NNW 6
13.12.2019 09:00:00 -3,0 -5,0 0 0 N 10
13.12.2019 08:00:00 -3,0 -5,0 0 0 N 10
13.12.2019 07:00:00 -3,2 -5,1 0 0 N 10
13.12.2019 06:00:00 - - - - - -
13.12.2019 05:00:00 - - - - - -
13.12.2019 04:00:00 - - - - - -
13.12.2019 03:00:00 - - - - - -
13.12.2019 02:00:00 - - - - - -
13.12.2019 01:00:00 - - - - - -
13.12.2019 00:00:00 - - - - - -
12.12.2019 23:00:00 - - - - - -
12.12.2019 22:00:00 - - - - - -
12.12.2019 21:00:00 - - - - - -
12.12.2019 20:00:00 - - - - - -
12.12.2019 19:00:00 -4,2 -5,4 0 0 N 1,5
12.12.2019 18:00:00 -4,0 -6,0 0 0 N 2,0
12.12.2019 17:00:00 -4,0 -6,0 0 0 N 2,0
12.12.2019 16:00:00 -3,8 -6,0 0 0 N 3,0
12.12.2019 15:00:00 -4,0 -6,0 0 0 N 10
12.12.2019 14:00:00 -4,0 -7,0 0 0 N 10
12.12.2019 13:00:00 -4,0 -6,9 0 0 N 12
12.12.2019 12:00:00 -4,0 -7,0 0 0 N 10
12.12.2019 11:00:00 -4,0 -6,0 5 3 SSE 10
12.12.2019 10:00:00 -6,0 -7,8 0 0 N 12
12.12.2019 09:00:00 -7,0 -9,0 0 0 N 10
12.12.2019 08:00:00 -8,0 -10,0 0 0 N 10
12.12.2019 07:00:00 -8,0 -9,8 0 0 N 15
12.12.2019 06:00:00 - - - - - -
12.12.2019 05:00:00 - - - - - -
12.12.2019 04:00:00 - - - - - -
12.12.2019 03:00:00 - - - - - -
12.12.2019 02:00:00 - - - - - -
12.12.2019 01:00:00 - - - - - -
12.12.2019 00:00:00 - - - - - -
11.12.2019 23:00:00 - - - - - -
11.12.2019 22:00:00 - - - - - -
11.12.2019 21:00:00 - - - - - -
11.12.2019 20:00:00 - - - - - -
11.12.2019 19:00:00 -5,0 -6,8 0 0 N 15
11.12.2019 18:00:00 -4,0 -7,0 0 0 N 10
11.12.2019 17:00:00 -4,0 -7,0 0 0 N 10
11.12.2019 16:00:00 -2,6 -6,1 0 0 N 15
11.12.2019 15:00:00 -2,0 -7,0 0 0 N 10
11.12.2019 14:00:00 -1,0 -6,0 5 3 S 10
11.12.2019 13:00:00 -1,6 -6,2 4 2 SSE 15
11.12.2019 12:00:00 -2,0 -6,0 5 3 SSE 10
11.12.2019 11:00:00 -4,0 -6,0 4 2 SSE 10
11.12.2019 10:00:00 -5,4 -7,1 0 0 N 15
11.12.2019 09:00:00 -7,0 -8,0 0 0 N 10
11.12.2019 08:00:00 -6,0 -9,0 0 0 N 10
11.12.2019 07:00:00 -6,2 -8,3 0 0 N 15
11.12.2019 06:00:00 - - - - - -
11.12.2019 05:00:00 - - - - - -
11.12.2019 04:00:00 - - - - - -
11.12.2019 03:00:00 - - - - - -
11.12.2019 02:00:00 - - - - - -
11.12.2019 01:00:00 - - - - - -
11.12.2019 00:00:00 - - - - - -
10.12.2019 23:00:00 - - - - - -
10.12.2019 22:00:00 - - - - - -
10.12.2019 21:00:00 - - - - - -
10.12.2019 20:00:00 - - - - - -
10.12.2019 19:00:00 -1,4 -3,0 0 0 N 10
10.12.2019 18:00:00 -1,0 -2,0 0 0 N 6
10.12.2019 17:00:00 0,0 -1,0 0 0 N 2,0
10.12.2019 16:00:00 1,0 -1,7 0 0 N 10
10.12.2019 15:00:00 3,0 -3,0 2 1 ESE 10
10.12.2019 14:00:00 3,0 0,0 4 2 SE 10
10.12.2019 13:00:00 2,0 0,5 2 1 SE 10
10.12.2019 12:00:00 0,0 -1,0 2 1 SE 0,3
10.12.2019 11:00:00 0,0 -1,0 4 2 SE 0,2
10.12.2019 10:00:00 -0,4 -1,7 0 0 N 0,1
10.12.2019 09:00:00 -1,0 -2,0 0 0 N 0,2
10.12.2019 08:00:00 0,0 -2,0 0 0 N 0,2
10.12.2019 07:00:00 -0,2 -1,3 2 1 E 0,1
10.12.2019 06:00:00 - - - - - -
10.12.2019 05:00:00 - - - - - -
10.12.2019 04:00:00 - - - - - -
10.12.2019 03:00:00 - - - - - -
10.12.2019 02:00:00 - - - - - -
10.12.2019 01:00:00 - - - - - -
10.12.2019 00:00:00 - - - - - -
09.12.2019 23:00:00 - - - - - -
09.12.2019 22:00:00 - - - - - -
09.12.2019 21:00:00 - - - - - -
09.12.2019 20:00:00 - - - - - -
09.12.2019 19:00:00 0,8 0,1 0 0 N 0,9
09.12.2019 18:00:00 1,0 0,0 0 0 N 0,9

tt = temperature
td = dewpoint
ff = wind speed
dd = wind direction
vv = visibility

Next stations